sensor_id;sensor_type;location;lat;lon;timestamp;P1;durP1;ratioP1;P2;durP2;ratioP2
18875;SDS011;9570;50.854;13.778;2023-02-15T00:00:01;10.43;;;6.17;;
18875;SDS011;9570;50.854;13.778;2023-02-15T00:02:28;8.45;;;5.72;;
18875;SDS011;9570;50.854;13.778;2023-02-15T00:04:53;10.37;;;5.93;;
18875;SDS011;9570;50.854;13.778;2023-02-15T00:07:20;7.88;;;5.63;;
18875;SDS011;9570;50.854;13.778;2023-02-15T00:09:46;8.07;;;5.43;;
18875;SDS011;9570;50.854;13.778;2023-02-15T00:12:12;9.47;;;5.30;;
18875;SDS011;9570;50.854;13.778;2023-02-15T00:14:38;9.80;;;6.00;;
18875;SDS011;9570;50.854;13.778;2023-02-15T00:17:04;7.27;;;5.07;;
18875;SDS011;9570;50.854;13.778;2023-02-15T00:19:29;9.47;;;5.57;;
18875;SDS011;9570;50.854;13.778;2023-02-15T00:21:55;6.87;;;4.90;;
18875;SDS011;9570;50.854;13.778;2023-02-15T00:24:20;8.33;;;5.30;;
18875;SDS011;9570;50.854;13.778;2023-02-15T00:26:46;8.40;;;5.33;;
18875;SDS011;9570;50.854;13.778;2023-02-15T00:29:12;7.55;;;4.93;;
18875;SDS011;9570;50.854;13.778;2023-02-15T00:31:39;8.38;;;5.47;;
18875;SDS011;9570;50.854;13.778;2023-02-15T00:34:06;7.57;;;5.27;;
18875;SDS011;9570;50.854;13.778;2023-02-15T00:36:35;6.10;;;4.63;;
18875;SDS011;9570;50.854;13.778;2023-02-15T00:39:01;7.90;;;4.73;;
18875;SDS011;9570;50.854;13.778;2023-02-15T00:41:27;7.47;;;5.10;;
18875;SDS011;9570;50.854;13.778;2023-02-15T00:43:52;7.83;;;4.80;;
18875;SDS011;9570;50.854;13.778;2023-02-15T00:46:18;8.73;;;4.90;;
18875;SDS011;9570;50.854;13.778;2023-02-15T00:48:43;7.00;;;4.50;;
18875;SDS011;9570;50.854;13.778;2023-02-15T00:51:08;8.23;;;4.57;;
18875;SDS011;9570;50.854;13.778;2023-02-15T00:53:34;8.30;;;5.13;;
18875;SDS011;9570;50.854;13.778;2023-02-15T00:55:59;8.13;;;5.27;;
18875;SDS011;9570;50.854;13.778;2023-02-15T00:58:25;8.43;;;5.53;;
18875;SDS011;9570;50.854;13.778;2023-02-15T01:00:51;8.87;;;5.43;;
18875;SDS011;9570;50.854;13.778;2023-02-15T01:03:17;8.80;;;5.70;;
18875;SDS011;9570;50.854;13.778;2023-02-15T01:05:43;9.15;;;5.28;;
18875;SDS011;9570;50.854;13.778;2023-02-15T01:08:09;7.03;;;4.93;;
18875;SDS011;9570;50.854;13.778;2023-02-15T01:10:35;9.33;;;5.50;;
18875;SDS011;9570;50.854;13.778;2023-02-15T01:13:01;8.88;;;5.05;;
18875;SDS011;9570;50.854;13.778;2023-02-15T01:15:27;7.82;;;4.90;;
18875;SDS011;9570;50.854;13.778;2023-02-15T01:17:53;7.67;;;4.90;;
18875;SDS011;9570;50.854;13.778;2023-02-15T01:20:19;8.73;;;5.30;;
18875;SDS011;9570;50.854;13.778;2023-02-15T01:22:45;7.55;;;5.07;;
18875;SDS011;9570;50.854;13.778;2023-02-15T01:25:11;8.93;;;5.20;;
18875;SDS011;9570;50.854;13.778;2023-02-15T01:27:37;7.93;;;4.90;;
18875;SDS011;9570;50.854;13.778;2023-02-15T01:30:02;7.47;;;5.10;;
18875;SDS011;9570;50.854;13.778;2023-02-15T01:32:29;7.28;;;4.97;;
18875;SDS011;9570;50.854;13.778;2023-02-15T01:34:55;7.70;;;4.87;;
18875;SDS011;9570;50.854;13.778;2023-02-15T01:37:20;6.87;;;4.47;;
18875;SDS011;9570;50.854;13.778;2023-02-15T01:39:46;8.23;;;5.00;;
18875;SDS011;9570;50.854;13.778;2023-02-15T01:42:11;7.17;;;4.70;;
18875;SDS011;9570;50.854;13.778;2023-02-15T01:44:51;8.55;;;4.72;;
18875;SDS011;9570;50.854;13.778;2023-02-15T01:47:22;9.05;;;5.63;;
18875;SDS011;9570;50.854;13.778;2023-02-15T01:49:55;8.23;;;4.90;;
18875;SDS011;9570;50.854;13.778;2023-02-15T01:52:58;8.10;;;4.85;;
18875;SDS011;9570;50.854;13.778;2023-02-15T01:55:33;8.85;;;5.50;;
18875;SDS011;9570;50.854;13.778;2023-02-15T01:58:02;7.55;;;4.65;;
18875;SDS011;9570;50.854;13.778;2023-02-15T02:00:28;8.70;;;5.20;;
18875;SDS011;9570;50.854;13.778;2023-02-15T02:02:55;7.03;;;4.70;;
18875;SDS011;9570;50.854;13.778;2023-02-15T02:05:21;8.70;;;5.07;;
18875;SDS011;9570;50.854;13.778;2023-02-15T02:07:47;8.60;;;5.60;;
18875;SDS011;9570;50.854;13.778;2023-02-15T02:10:16;8.30;;;4.90;;
18875;SDS011;9570;50.854;13.778;2023-02-15T02:12:44;8.63;;;5.38;;
18875;SDS011;9570;50.854;13.778;2023-02-15T02:15:12;8.00;;;4.97;;
18875;SDS011;9570;50.854;13.778;2023-02-15T02:20:50;8.30;;;4.78;;
18875;SDS011;9570;50.854;13.778;2023-02-15T02:23:29;8.52;;;4.93;;
18875;SDS011;9570;50.854;13.778;2023-02-15T02:26:17;7.18;;;4.63;;
18875;SDS011;9570;50.854;13.778;2023-02-15T02:29:07;8.32;;;4.85;;
18875;SDS011;9570;50.854;13.778;2023-02-15T02:34:55;6.38;;;4.38;;
18875;SDS011;9570;50.854;13.778;2023-02-15T02:37:37;6.60;;;4.32;;
18875;SDS011;9570;50.854;13.778;2023-02-15T02:42:41;6.75;;;4.47;;
18875;SDS011;9570;50.854;13.778;2023-02-15T02:47:43;5.10;;;3.55;;
18875;SDS011;9570;50.854;13.778;2023-02-15T02:50:23;7.55;;;3.83;;
18875;SDS011;9570;50.854;13.778;2023-02-15T02:52:51;4.28;;;3.35;;
18875;SDS011;9570;50.854;13.778;2023-02-15T02:55:27;4.85;;;3.33;;
18875;SDS011;9570;50.854;13.778;2023-02-15T03:00:31;5.82;;;3.40;;
18875;SDS011;9570;50.854;13.778;2023-02-15T03:03:02;5.32;;;3.60;;
18875;SDS011;9570;50.854;13.778;2023-02-15T03:05:31;5.38;;;3.70;;
18875;SDS011;9570;50.854;13.778;2023-02-15T03:07:58;5.22;;;3.38;;
18875;SDS011;9570;50.854;13.778;2023-02-15T03:10:30;8.38;;;3.70;;
18875;SDS011;9570;50.854;13.778;2023-02-15T03:12:57;5.60;;;3.53;;
18875;SDS011;9570;50.854;13.778;2023-02-15T03:15:23;7.47;;;4.20;;
18875;SDS011;9570;50.854;13.778;2023-02-15T03:18:11;5.25;;;3.83;;
18875;SDS011;9570;50.854;13.778;2023-02-15T03:20:38;5.80;;;3.20;;
18875;SDS011;9570;50.854;13.778;2023-02-15T03:23:04;5.37;;;3.20;;
18875;SDS011;9570;50.854;13.778;2023-02-15T03:25:38;4.90;;;3.53;;
18875;SDS011;9570;50.854;13.778;2023-02-15T03:28:07;5.40;;;3.30;;
18875;SDS011;9570;50.854;13.778;2023-02-15T03:30:36;5.30;;;3.38;;
18875;SDS011;9570;50.854;13.778;2023-02-15T03:33:04;4.70;;;3.50;;
18875;SDS011;9570;50.854;13.778;2023-02-15T03:35:34;4.20;;;3.10;;
18875;SDS011;9570;50.854;13.778;2023-02-15T03:38:06;5.30;;;3.20;;
18875;SDS011;9570;50.854;13.778;2023-02-15T03:40:34;5.43;;;3.25;;
18875;SDS011;9570;50.854;13.778;2023-02-15T03:43:30;4.13;;;2.78;;
18875;SDS011;9570;50.854;13.778;2023-02-15T03:46:10;3.88;;;3.10;;
18875;SDS011;9570;50.854;13.778;2023-02-15T03:48:42;5.95;;;3.58;;
18875;SDS011;9570;50.854;13.778;2023-02-15T03:51:12;4.05;;;2.67;;
18875;SDS011;9570;50.854;13.778;2023-02-15T03:54:10;4.32;;;3.30;;
18875;SDS011;9570;50.854;13.778;2023-02-15T03:57:19;5.03;;;2.90;;
18875;SDS011;9570;50.854;13.778;2023-02-15T04:00:09;4.47;;;3.03;;
18875;SDS011;9570;50.854;13.778;2023-02-15T04:03:07;4.50;;;3.10;;
18875;SDS011;9570;50.854;13.778;2023-02-15T04:05:45;5.85;;;3.00;;
18875;SDS011;9570;50.854;13.778;2023-02-15T04:08:11;5.07;;;3.00;;
18875;SDS011;9570;50.854;13.778;2023-02-15T04:10:37;4.18;;;3.30;;
18875;SDS011;9570;50.854;13.778;2023-02-15T04:13:30;4.72;;;3.22;;
18875;SDS011;9570;50.854;13.778;2023-02-15T04:15:57;6.43;;;2.95;;
18875;SDS011;9570;50.854;13.778;2023-02-15T04:18:29;5.28;;;3.20;;
18875;SDS011;9570;50.854;13.778;2023-02-15T04:21:14;4.68;;;3.10;;
18875;SDS011;9570;50.854;13.778;2023-02-15T04:23:58;5.75;;;3.03;;
18875;SDS011;9570;50.854;13.778;2023-02-15T04:26:42;5.72;;;3.08;;
18875;SDS011;9570;50.854;13.778;2023-02-15T04:29:08;4.87;;;3.40;;
18875;SDS011;9570;50.854;13.778;2023-02-15T04:31:34;3.80;;;2.93;;
18875;SDS011;9570;50.854;13.778;2023-02-15T04:33:59;4.67;;;3.23;;
18875;SDS011;9570;50.854;13.778;2023-02-15T04:36:25;5.60;;;2.80;;
18875;SDS011;9570;50.854;13.778;2023-02-15T04:38:50;4.27;;;2.90;;
18875;SDS011;9570;50.854;13.778;2023-02-15T04:41:16;3.90;;;2.90;;
18875;SDS011;9570;50.854;13.778;2023-02-15T04:43:41;4.90;;;2.90;;
18875;SDS011;9570;50.854;13.778;2023-02-15T04:46:07;6.43;;;2.50;;
18875;SDS011;9570;50.854;13.778;2023-02-15T04:48:32;5.20;;;2.70;;
18875;SDS011;9570;50.854;13.778;2023-02-15T04:50:58;5.27;;;3.10;;
18875;SDS011;9570;50.854;13.778;2023-02-15T04:53:23;3.47;;;2.67;;
18875;SDS011;9570;50.854;13.778;2023-02-15T04:55:49;6.13;;;3.20;;
18875;SDS011;9570;50.854;13.778;2023-02-15T04:58:14;3.70;;;2.40;;
18875;SDS011;9570;50.854;13.778;2023-02-15T05:00:40;4.33;;;3.17;;
18875;SDS011;9570;50.854;13.778;2023-02-15T05:03:05;5.00;;;2.73;;
18875;SDS011;9570;50.854;13.778;2023-02-15T05:05:30;4.07;;;2.73;;
18875;SDS011;9570;50.854;13.778;2023-02-15T05:07:56;4.93;;;3.43;;
18875;SDS011;9570;50.854;13.778;2023-02-15T05:10:21;4.70;;;3.10;;
18875;SDS011;9570;50.854;13.778;2023-02-15T05:12:47;4.13;;;2.90;;
18875;SDS011;9570;50.854;13.778;2023-02-15T05:15:12;5.17;;;2.87;;
18875;SDS011;9570;50.854;13.778;2023-02-15T05:17:38;3.90;;;2.70;;
18875;SDS011;9570;50.854;13.778;2023-02-15T05:20:03;5.07;;;2.90;;
18875;SDS011;9570;50.854;13.778;2023-02-15T05:22:30;4.55;;;3.15;;
18875;SDS011;9570;50.854;13.778;2023-02-15T05:24:56;4.27;;;2.87;;
18875;SDS011;9570;50.854;13.778;2023-02-15T05:27:40;4.57;;;2.90;;
18875;SDS011;9570;50.854;13.778;2023-02-15T05:30:24;5.43;;;3.20;;
18875;SDS011;9570;50.854;13.778;2023-02-15T05:32:50;4.70;;;3.03;;
18875;SDS011;9570;50.854;13.778;2023-02-15T05:35:15;5.00;;;2.60;;
18875;SDS011;9570;50.854;13.778;2023-02-15T05:37:41;4.57;;;3.20;;
18875;SDS011;9570;50.854;13.778;2023-02-15T05:40:07;3.47;;;2.83;;
18875;SDS011;9570;50.854;13.778;2023-02-15T05:42:33;5.57;;;3.38;;
18875;SDS011;9570;50.854;13.778;2023-02-15T05:44:59;3.87;;;2.83;;
18875;SDS011;9570;50.854;13.778;2023-02-15T05:47:24;4.63;;;3.17;;
18875;SDS011;9570;50.854;13.778;2023-02-15T05:49:50;4.07;;;3.00;;
18875;SDS011;9570;50.854;13.778;2023-02-15T05:52:15;4.93;;;2.90;;
18875;SDS011;9570;50.854;13.778;2023-02-15T05:54:41;5.53;;;3.17;;
18875;SDS011;9570;50.854;13.778;2023-02-15T05:57:06;5.47;;;3.20;;
18875;SDS011;9570;50.854;13.778;2023-02-15T05:59:32;4.53;;;2.90;;
18875;SDS011;9570;50.854;13.778;2023-02-15T06:01:57;5.50;;;3.20;;
18875;SDS011;9570;50.854;13.778;2023-02-15T06:04:22;6.40;;;3.50;;
18875;SDS011;9570;50.854;13.778;2023-02-15T06:06:48;4.87;;;3.33;;
18875;SDS011;9570;50.854;13.778;2023-02-15T06:09:13;5.10;;;3.20;;
18875;SDS011;9570;50.854;13.778;2023-02-15T06:11:39;5.20;;;3.30;;
18875;SDS011;9570;50.854;13.778;2023-02-15T06:14:05;3.80;;;2.90;;
18875;SDS011;9570;50.854;13.778;2023-02-15T06:16:30;4.47;;;3.03;;
18875;SDS011;9570;50.854;13.778;2023-02-15T06:18:56;4.67;;;3.00;;
18875;SDS011;9570;50.854;13.778;2023-02-15T06:21:21;4.23;;;2.77;;
18875;SDS011;9570;50.854;13.778;2023-02-15T06:23:47;5.50;;;3.30;;
18875;SDS011;9570;50.854;13.778;2023-02-15T06:26:12;4.37;;;3.10;;
18875;SDS011;9570;50.854;13.778;2023-02-15T06:28:38;4.80;;;3.40;;
18875;SDS011;9570;50.854;13.778;2023-02-15T06:31:04;4.80;;;3.10;;
18875;SDS011;9570;50.854;13.778;2023-02-15T06:33:30;5.00;;;3.50;;
18875;SDS011;9570;50.854;13.778;2023-02-15T06:35:57;5.30;;;3.53;;
18875;SDS011;9570;50.854;13.778;2023-02-15T06:38:23;9.70;;;3.83;;
18875;SDS011;9570;50.854;13.778;2023-02-15T06:40:48;4.40;;;3.10;;
18875;SDS011;9570;50.854;13.778;2023-02-15T06:43:14;5.53;;;3.40;;
18875;SDS011;9570;50.854;13.778;2023-02-15T06:45:39;5.77;;;3.33;;
18875;SDS011;9570;50.854;13.778;2023-02-15T06:48:06;4.43;;;2.92;;
18875;SDS011;9570;50.854;13.778;2023-02-15T06:50:32;6.10;;;3.17;;
18875;SDS011;9570;50.854;13.778;2023-02-15T06:52:59;3.97;;;3.03;;
18875;SDS011;9570;50.854;13.778;2023-02-15T06:55:24;6.23;;;3.57;;
18875;SDS011;9570;50.854;13.778;2023-02-15T06:57:50;4.87;;;3.27;;
18875;SDS011;9570;50.854;13.778;2023-02-15T07:00:16;4.67;;;3.10;;
18875;SDS011;9570;50.854;13.778;2023-02-15T07:02:42;5.38;;;3.05;;
18875;SDS011;9570;50.854;13.778;2023-02-15T07:05:08;4.83;;;3.43;;
18875;SDS011;9570;50.854;13.778;2023-02-15T07:07:33;5.10;;;3.50;;
18875;SDS011;9570;50.854;13.778;2023-02-15T07:09:59;5.57;;;3.40;;
18875;SDS011;9570;50.854;13.778;2023-02-15T07:12:24;5.53;;;3.50;;
18875;SDS011;9570;50.854;13.778;2023-02-15T07:15:13;6.70;;;3.85;;
18875;SDS011;9570;50.854;13.778;2023-02-15T07:17:41;5.38;;;3.50;;
18875;SDS011;9570;50.854;13.778;2023-02-15T07:20:08;9.50;;;4.27;;
18875;SDS011;9570;50.854;13.778;2023-02-15T07:22:38;6.60;;;4.30;;
18875;SDS011;9570;50.854;13.778;2023-02-15T07:25:04;6.40;;;3.90;;
18875;SDS011;9570;50.854;13.778;2023-02-15T07:27:31;5.15;;;3.60;;
18875;SDS011;9570;50.854;13.778;2023-02-15T07:29:57;6.23;;;3.90;;
18875;SDS011;9570;50.854;13.778;2023-02-15T07:32:23;7.23;;;3.60;;
18875;SDS011;9570;50.854;13.778;2023-02-15T07:34:48;5.93;;;3.67;;
18875;SDS011;9570;50.854;13.778;2023-02-15T07:37:14;6.57;;;3.90;;
18875;SDS011;9570;50.854;13.778;2023-02-15T07:39:39;5.27;;;3.70;;
18875;SDS011;9570;50.854;13.778;2023-02-15T07:42:05;6.23;;;3.67;;
18875;SDS011;9570;50.854;13.778;2023-02-15T07:44:30;8.73;;;4.13;;
18875;SDS011;9570;50.854;13.778;2023-02-15T07:46:56;6.97;;;3.70;;
18875;SDS011;9570;50.854;13.778;2023-02-15T07:49:21;5.30;;;3.43;;
18875;SDS011;9570;50.854;13.778;2023-02-15T07:51:46;5.90;;;3.37;;
18875;SDS011;9570;50.854;13.778;2023-02-15T07:54:12;5.47;;;3.50;;
18875;SDS011;9570;50.854;13.778;2023-02-15T07:56:37;6.40;;;3.70;;
18875;SDS011;9570;50.854;13.778;2023-02-15T07:59:03;7.17;;;3.80;;
18875;SDS011;9570;50.854;13.778;2023-02-15T08:01:34;6.13;;;3.50;;
18875;SDS011;9570;50.854;13.778;2023-02-15T08:04:01;5.17;;;3.60;;
18875;SDS011;9570;50.854;13.778;2023-02-15T08:06:29;5.70;;;3.73;;
18875;SDS011;9570;50.854;13.778;2023-02-15T08:08:57;7.20;;;5.17;;
18875;SDS011;9570;50.854;13.778;2023-02-15T08:11:23;6.13;;;4.60;;
18875;SDS011;9570;50.854;13.778;2023-02-15T08:14:12;6.47;;;4.40;;
18875;SDS011;9570;50.854;13.778;2023-02-15T08:16:41;4.40;;;3.40;;
18875;SDS011;9570;50.854;13.778;2023-02-15T08:19:17;8.10;;;6.43;;
18875;SDS011;9570;50.854;13.778;2023-02-15T08:21:46;9.33;;;6.60;;
18875;SDS011;9570;50.854;13.778;2023-02-15T08:24:13;7.10;;;4.50;;
18875;SDS011;9570;50.854;13.778;2023-02-15T08:26:40;5.80;;;4.07;;
18875;SDS011;9570;50.854;13.778;2023-02-15T08:29:06;7.03;;;5.97;;
18875;SDS011;9570;50.854;13.778;2023-02-15T08:31:33;6.93;;;4.60;;
18875;SDS011;9570;50.854;13.778;2023-02-15T08:33:59;10.50;;;8.17;;
18875;SDS011;9570;50.854;13.778;2023-02-15T08:36:26;22.87;;;17.27;;
18875;SDS011;9570;50.854;13.778;2023-02-15T08:38:54;27.30;;;21.17;;
18875;SDS011;9570;50.854;13.778;2023-02-15T08:41:26;36.10;;;27.10;;
18875;SDS011;9570;50.854;13.778;2023-02-15T08:43:55;25.80;;;20.13;;
18875;SDS011;9570;50.854;13.778;2023-02-15T08:46:22;22.73;;;16.47;;
18875;SDS011;9570;50.854;13.778;2023-02-15T08:48:49;14.17;;;10.63;;
18875;SDS011;9570;50.854;13.778;2023-02-15T08:51:16;12.17;;;9.83;;
18875;SDS011;9570;50.854;13.778;2023-02-15T08:53:44;14.37;;;9.03;;
18875;SDS011;9570;50.854;13.778;2023-02-15T08:56:13;7.37;;;6.07;;
18875;SDS011;9570;50.854;13.778;2023-02-15T08:58:39;7.53;;;6.27;;
18875;SDS011;9570;50.854;13.778;2023-02-15T09:01:12;6.73;;;5.83;;
18875;SDS011;9570;50.854;13.778;2023-02-15T09:03:42;7.90;;;5.60;;
18875;SDS011;9570;50.854;13.778;2023-02-15T09:06:08;9.07;;;6.70;;
18875;SDS011;9570;50.854;13.778;2023-02-15T09:08:34;7.93;;;6.60;;
18875;SDS011;9570;50.854;13.778;2023-02-15T09:11:10;8.33;;;6.13;;
18875;SDS011;9570;50.854;13.778;2023-02-15T09:13:36;7.00;;;4.60;;
18875;SDS011;9570;50.854;13.778;2023-02-15T09:16:04;8.87;;;5.53;;
18875;SDS011;9570;50.854;13.778;2023-02-15T09:18:32;7.83;;;5.90;;
18875;SDS011;9570;50.854;13.778;2023-02-15T09:21:07;9.93;;;6.93;;
18875;SDS011;9570;50.854;13.778;2023-02-15T09:23:38;11.17;;;5.53;;
18875;SDS011;9570;50.854;13.778;2023-02-15T09:26:06;8.87;;;6.77;;
18875;SDS011;9570;50.854;13.778;2023-02-15T09:28:33;5.83;;;4.47;;
18875;SDS011;9570;50.854;13.778;2023-02-15T09:31:09;6.80;;;4.10;;
18875;SDS011;9570;50.854;13.778;2023-02-15T09:33:40;4.23;;;3.80;;
18875;SDS011;9570;50.854;13.778;2023-02-15T09:36:13;5.60;;;4.00;;
18875;SDS011;9570;50.854;13.778;2023-02-15T09:38:41;4.77;;;3.80;;
18875;SDS011;9570;50.854;13.778;2023-02-15T09:43:48;6.03;;;4.13;;
18875;SDS011;9570;50.854;13.778;2023-02-15T09:49:28;6.50;;;4.10;;
18875;SDS011;9570;50.854;13.778;2023-02-15T09:52:18;4.53;;;3.90;;
18875;SDS011;9570;50.854;13.778;2023-02-15T10:01:19;5.87;;;4.00;;
18875;SDS011;9570;50.854;13.778;2023-02-15T10:03:33;4.47;;;3.50;;
18875;SDS011;9570;50.854;13.778;2023-02-15T10:06:08;7.13;;;4.73;;
18875;SDS011;9570;50.854;13.778;2023-02-15T10:08:58;7.43;;;4.93;;
18875;SDS011;9570;50.854;13.778;2023-02-15T10:11:31;6.57;;;4.40;;
18875;SDS011;9570;50.854;13.778;2023-02-15T10:25:43;4.90;;;4.20;;
18875;SDS011;9570;50.854;13.778;2023-02-15T10:28:33;6.33;;;4.50;;
18875;SDS011;9570;50.854;13.778;2023-02-15T10:31:13;6.37;;;4.40;;
18875;SDS011;9570;50.854;13.778;2023-02-15T10:34:02;6.83;;;4.60;;
18875;SDS011;9570;50.854;13.778;2023-02-15T10:39:16;5.70;;;4.03;;
18875;SDS011;9570;50.854;13.778;2023-02-15T10:42:01;5.33;;;4.10;;
18875;SDS011;9570;50.854;13.778;2023-02-15T10:47:31;7.00;;;4.20;;
18875;SDS011;9570;50.854;13.778;2023-02-15T10:50:20;4.47;;;3.93;;
18875;SDS011;9570;50.854;13.778;2023-02-15T10:52:59;4.40;;;4.00;;
18875;SDS011;9570;50.854;13.778;2023-02-15T11:06:34;6.57;;;4.20;;
18875;SDS011;9570;50.854;13.778;2023-02-15T11:09:05;4.70;;;4.23;;
18875;SDS011;9570;50.854;13.778;2023-02-15T11:11:36;6.13;;;3.83;;
18875;SDS011;9570;50.854;13.778;2023-02-15T11:16:57;4.70;;;3.77;;
18875;SDS011;9570;50.854;13.778;2023-02-15T11:19:32;4.70;;;3.80;;
18875;SDS011;9570;50.854;13.778;2023-02-15T11:22:02;4.20;;;3.00;;
18875;SDS011;9570;50.854;13.778;2023-02-15T11:24:30;5.33;;;3.57;;
18875;SDS011;9570;50.854;13.778;2023-02-15T11:29:31;5.87;;;3.27;;
18875;SDS011;9570;50.854;13.778;2023-02-15T11:35:04;7.63;;;3.53;;
18875;SDS011;9570;50.854;13.778;2023-02-15T11:37:46;4.47;;;3.40;;
18875;SDS011;9570;50.854;13.778;2023-02-15T11:40:22;3.67;;;3.10;;
18875;SDS011;9570;50.854;13.778;2023-02-15T11:42:53;4.30;;;3.50;;
18875;SDS011;9570;50.854;13.778;2023-02-15T11:45:31;3.90;;;3.20;;
18875;SDS011;9570;50.854;13.778;2023-02-15T11:47:59;4.37;;;3.60;;
18875;SDS011;9570;50.854;13.778;2023-02-15T11:50:26;5.63;;;4.10;;
18875;SDS011;9570;50.854;13.778;2023-02-15T11:52:56;4.63;;;3.77;;
18875;SDS011;9570;50.854;13.778;2023-02-15T11:55:25;4.50;;;3.60;;
18875;SDS011;9570;50.854;13.778;2023-02-15T11:57:55;5.23;;;3.80;;
18875;SDS011;9570;50.854;13.778;2023-02-15T12:03:09;6.23;;;3.80;;
18875;SDS011;9570;50.854;13.778;2023-02-15T12:05:43;5.80;;;3.50;;
18875;SDS011;9570;50.854;13.778;2023-02-15T12:08:16;5.37;;;3.57;;
18875;SDS011;9570;50.854;13.778;2023-02-15T12:10:46;4.80;;;3.83;;
18875;SDS011;9570;50.854;13.778;2023-02-15T12:13:21;4.97;;;3.80;;
18875;SDS011;9570;50.854;13.778;2023-02-15T12:15:47;4.20;;;3.47;;
18875;SDS011;9570;50.854;13.778;2023-02-15T12:18:24;6.00;;;4.20;;
18875;SDS011;9570;50.854;13.778;2023-02-15T12:21:10;5.27;;;3.87;;
18875;SDS011;9570;50.854;13.778;2023-02-15T12:23:46;5.67;;;4.07;;
18875;SDS011;9570;50.854;13.778;2023-02-15T12:26:13;5.23;;;3.80;;
18875;SDS011;9570;50.854;13.778;2023-02-15T12:28:43;4.17;;;3.60;;
18875;SDS011;9570;50.854;13.778;2023-02-15T12:31:21;5.20;;;3.80;;
18875;SDS011;9570;50.854;13.778;2023-02-15T12:34:01;5.47;;;3.83;;
18875;SDS011;9570;50.854;13.778;2023-02-15T12:36:39;4.20;;;3.53;;
18875;SDS011;9570;50.854;13.778;2023-02-15T12:41:38;4.10;;;3.17;;
18875;SDS011;9570;50.854;13.778;2023-02-15T12:44:18;4.60;;;3.30;;
18875;SDS011;9570;50.854;13.778;2023-02-15T12:46:58;4.63;;;3.10;;
18875;SDS011;9570;50.854;13.778;2023-02-15T12:49:28;3.97;;;3.33;;
18875;SDS011;9570;50.854;13.778;2023-02-15T12:52:03;4.13;;;3.40;;
18875;SDS011;9570;50.854;13.778;2023-02-15T12:54:34;4.83;;;3.40;;
18875;SDS011;9570;50.854;13.778;2023-02-15T12:57:13;4.13;;;2.83;;
18875;SDS011;9570;50.854;13.778;2023-02-15T12:59:47;4.40;;;3.20;;
18875;SDS011;9570;50.854;13.778;2023-02-15T13:07:58;5.40;;;3.70;;
18875;SDS011;9570;50.854;13.778;2023-02-15T13:10:56;3.67;;;3.27;;
18875;SDS011;9570;50.854;13.778;2023-02-15T13:13:28;4.30;;;3.57;;
18875;SDS011;9570;50.854;13.778;2023-02-15T13:15:57;4.60;;;3.60;;
18875;SDS011;9570;50.854;13.778;2023-02-15T13:18:28;3.37;;;3.00;;
18875;SDS011;9570;50.854;13.778;2023-02-15T13:21:12;4.07;;;3.40;;
18875;SDS011;9570;50.854;13.778;2023-02-15T13:23:45;5.17;;;3.47;;
18875;SDS011;9570;50.854;13.778;2023-02-15T13:26:16;5.17;;;3.13;;
18875;SDS011;9570;50.854;13.778;2023-02-15T13:28:46;4.57;;;3.40;;
18875;SDS011;9570;50.854;13.778;2023-02-15T13:31:17;3.60;;;3.10;;
18875;SDS011;9570;50.854;13.778;2023-02-15T13:33:46;5.00;;;3.50;;
18875;SDS011;9570;50.854;13.778;2023-02-15T13:36:40;4.80;;;3.47;;
18875;SDS011;9570;50.854;13.778;2023-02-15T13:41:50;4.83;;;3.83;;
18875;SDS011;9570;50.854;13.778;2023-02-15T13:47:12;8.53;;;6.30;;
18875;SDS011;9570;50.854;13.778;2023-02-15T13:53:16;8.70;;;6.67;;
18875;SDS011;9570;50.854;13.778;2023-02-15T13:56:07;8.83;;;7.10;;
18875;SDS011;9570;50.854;13.778;2023-02-15T14:01:40;10.33;;;6.67;;
18875;SDS011;9570;50.854;13.778;2023-02-15T14:06:57;7.73;;;6.00;;
18875;SDS011;9570;50.854;13.778;2023-02-15T14:09:40;7.00;;;5.57;;
18875;SDS011;9570;50.854;13.778;2023-02-15T14:12:20;7.50;;;5.43;;
18875;SDS011;9570;50.854;13.778;2023-02-15T14:15:06;7.00;;;5.40;;
18875;SDS011;9570;50.854;13.778;2023-02-15T14:20:32;7.97;;;6.07;;
18875;SDS011;9570;50.854;13.778;2023-02-15T14:23:22;9.50;;;6.10;;
18875;SDS011;9570;50.854;13.778;2023-02-15T14:26:08;7.87;;;5.07;;
18875;SDS011;9570;50.854;13.778;2023-02-15T14:29:01;7.37;;;5.37;;
18875;SDS011;9570;50.854;13.778;2023-02-15T14:31:41;8.13;;;5.57;;
18875;SDS011;9570;50.854;13.778;2023-02-15T14:34:45;7.27;;;5.83;;
18875;SDS011;9570;50.854;13.778;2023-02-15T14:37:10;8.90;;;5.47;;
18875;SDS011;9570;50.854;13.778;2023-02-15T14:39:52;8.30;;;5.50;;
18875;SDS011;9570;50.854;13.778;2023-02-15T14:42:48;7.63;;;5.40;;
18875;SDS011;9570;50.854;13.778;2023-02-15T14:48:17;8.57;;;5.07;;
18875;SDS011;9570;50.854;13.778;2023-02-15T14:50:52;8.70;;;5.90;;
18875;SDS011;9570;50.854;13.778;2023-02-15T14:53:32;7.97;;;6.10;;
18875;SDS011;9570;50.854;13.778;2023-02-15T15:01:17;8.73;;;6.63;;
18875;SDS011;9570;50.854;13.778;2023-02-15T15:03:55;9.37;;;6.33;;
18875;SDS011;9570;50.854;13.778;2023-02-15T15:06:26;8.83;;;6.37;;
18875;SDS011;9570;50.854;13.778;2023-02-15T15:08:55;8.27;;;6.57;;
18875;SDS011;9570;50.854;13.778;2023-02-15T15:19:01;11.80;;;6.70;;
18875;SDS011;9570;50.854;13.778;2023-02-15T15:41:10;9.83;;;6.87;;
18875;SDS011;9570;50.854;13.778;2023-02-15T15:49:33;9.63;;;7.33;;
18875;SDS011;9570;50.854;13.778;2023-02-15T15:52:00;11.07;;;7.50;;
18875;SDS011;9570;50.854;13.778;2023-02-15T15:54:28;13.17;;;7.70;;
18875;SDS011;9570;50.854;13.778;2023-02-15T15:56:55;11.40;;;7.60;;
18875;SDS011;9570;50.854;13.778;2023-02-15T15:59:24;11.97;;;7.73;;
18875;SDS011;9570;50.854;13.778;2023-02-15T16:01:54;12.50;;;8.00;;
18875;SDS011;9570;50.854;13.778;2023-02-15T16:04:27;12.80;;;8.13;;
18875;SDS011;9570;50.854;13.778;2023-02-15T16:06:54;11.67;;;7.60;;
18875;SDS011;9570;50.854;13.778;2023-02-15T16:09:25;12.80;;;7.43;;
18875;SDS011;9570;50.854;13.778;2023-02-15T16:11:53;10.87;;;6.80;;
18875;SDS011;9570;50.854;13.778;2023-02-15T16:14:26;10.90;;;7.50;;
18875;SDS011;9570;50.854;13.778;2023-02-15T16:16:58;11.40;;;7.40;;
18875;SDS011;9570;50.854;13.778;2023-02-15T16:19:29;11.43;;;7.63;;
18875;SDS011;9570;50.854;13.778;2023-02-15T16:22:03;10.17;;;7.03;;
18875;SDS011;9570;50.854;13.778;2023-02-15T16:24:57;11.30;;;6.70;;
18875;SDS011;9570;50.854;13.778;2023-02-15T16:27:44;10.47;;;6.23;;
18875;SDS011;9570;50.854;13.778;2023-02-15T16:30:28;9.40;;;6.20;;
18875;SDS011;9570;50.854;13.778;2023-02-15T16:33:08;8.27;;;5.90;;
18875;SDS011;9570;50.854;13.778;2023-02-15T16:35:37;8.77;;;6.20;;
18875;SDS011;9570;50.854;13.778;2023-02-15T16:38:06;8.90;;;6.53;;
18875;SDS011;9570;50.854;13.778;2023-02-15T16:40:38;8.77;;;5.43;;
18875;SDS011;9570;50.854;13.778;2023-02-15T16:43:12;7.13;;;5.40;;
18875;SDS011;9570;50.854;13.778;2023-02-15T16:45:41;9.57;;;6.23;;
18875;SDS011;9570;50.854;13.778;2023-02-15T16:48:18;9.03;;;6.37;;
18875;SDS011;9570;50.854;13.778;2023-02-15T16:50:47;7.93;;;6.03;;
18875;SDS011;9570;50.854;13.778;2023-02-15T16:53:18;9.20;;;6.50;;
18875;SDS011;9570;50.854;13.778;2023-02-15T16:55:48;8.07;;;6.20;;
18875;SDS011;9570;50.854;13.778;2023-02-15T16:58:17;10.73;;;7.00;;
18875;SDS011;9570;50.854;13.778;2023-02-15T17:00:50;11.27;;;7.10;;
18875;SDS011;9570;50.854;13.778;2023-02-15T17:03:21;12.37;;;7.70;;
18875;SDS011;9570;50.854;13.778;2023-02-15T17:05:50;11.77;;;7.73;;
18875;SDS011;9570;50.854;13.778;2023-02-15T17:10:45;17.00;;;9.63;;
18875;SDS011;9570;50.854;13.778;2023-02-15T17:13:27;15.50;;;9.70;;
18875;SDS011;9570;50.854;13.778;2023-02-15T17:18:46;20.10;;;10.80;;
18875;SDS011;9570;50.854;13.778;2023-02-15T17:21:12;16.83;;;10.20;;
18875;SDS011;9570;50.854;13.778;2023-02-15T17:23:44;16.40;;;9.20;;
18875;SDS011;9570;50.854;13.778;2023-02-15T17:28:45;12.37;;;8.40;;